createdAt,value
2023-07-21T00:02:24.081Z,2.80
2023-07-21T00:04:50.757Z,2.80
2023-07-21T00:07:18.457Z,3.20
2023-07-21T00:09:45.535Z,2.90
2023-07-21T00:12:12.226Z,3.50
2023-07-21T00:14:38.826Z,3.50
2023-07-21T00:17:06.202Z,3.60
2023-07-21T00:19:32.812Z,3.70
2023-07-21T00:21:59.534Z,4.20
2023-07-21T00:24:26.239Z,3.80
2023-07-21T00:26:53.577Z,4.40
2023-07-21T00:29:20.201Z,4.10
2023-07-21T00:31:49.727Z,4.50
2023-07-21T00:34:16.297Z,4.50
2023-07-21T00:36:46.378Z,4.10
2023-07-21T00:39:14.011Z,4.60
2023-07-21T00:41:41.274Z,5.10
2023-07-21T00:44:09.648Z,5.10
2023-07-21T00:46:37.489Z,5.60
2023-07-21T00:49:05.823Z,4.60
2023-07-21T00:51:32.707Z,4.50
2023-07-21T00:54:00.844Z,4.70
2023-07-21T00:56:28.069Z,5.20
2023-07-21T00:58:55.144Z,4.60
2023-07-21T01:01:23.573Z,5.10
2023-07-21T01:03:51.515Z,3.80
2023-07-21T01:06:21.311Z,4.80
2023-07-21T01:08:50.352Z,5.10
2023-07-21T01:11:20.603Z,5.00
2023-07-21T01:13:50.975Z,5.10
2023-07-21T01:16:18.029Z,4.80
2023-07-21T01:19:04.095Z,5.30
2023-07-21T01:21:39.871Z,4.90
2023-07-21T01:24:17.027Z,4.20
2023-07-21T01:26:44.639Z,4.80
2023-07-21T01:29:11.952Z,4.50
2023-07-21T01:31:40.894Z,4.70
2023-07-21T01:34:10.399Z,4.50
2023-07-21T01:36:38.831Z,5.20
2023-07-21T01:39:07.536Z,4.90
2023-07-21T01:41:34.445Z,4.80
2023-07-21T01:44:01.798Z,4.70
2023-07-21T01:46:28.760Z,4.60
2023-07-21T01:48:55.863Z,5.10
2023-07-21T01:51:22.986Z,4.90
2023-07-21T01:53:56.495Z,5.30
2023-07-21T01:56:39.332Z,4.90
2023-07-21T01:59:11.239Z,4.30
2023-07-21T02:01:39.136Z,4.50
2023-07-21T02:04:06.034Z,3.40
2023-07-21T02:06:32.992Z,4.00
2023-07-21T02:08:59.893Z,3.60
2023-07-21T02:11:26.971Z,4.40
2023-07-21T02:14:20.480Z,3.90
2023-07-21T02:16:47.226Z,4.20
2023-07-21T02:19:15.094Z,4.30
2023-07-21T02:21:41.657Z,3.80
2023-07-21T02:24:08.321Z,4.00
2023-07-21T02:26:34.912Z,4.00
2023-07-21T02:29:01.606Z,3.20
2023-07-21T02:31:28.244Z,3.30
2023-07-21T02:33:54.909Z,3.50
2023-07-21T02:36:22.116Z,2.80
2023-07-21T02:38:49.045Z,3.00
2023-07-21T02:41:16.693Z,2.90
2023-07-21T02:43:43.419Z,2.60
2023-07-21T02:46:11.573Z,3.00
2023-07-21T02:48:38.206Z,2.80
2023-07-21T02:51:04.898Z,2.60
2023-07-21T02:53:35.208Z,2.60
2023-07-21T02:56:04.168Z,2.80
2023-07-21T02:58:32.876Z,2.60
2023-07-21T03:01:02.998Z,2.20
2023-07-21T03:03:32.940Z,2.20
2023-07-21T03:06:03.859Z,2.40
2023-07-21T03:08:30.712Z,2.80
2023-07-21T03:11:00.248Z,2.60
2023-07-21T03:13:28.699Z,2.20
2023-07-21T03:15:55.366Z,2.10
2023-07-21T03:18:28.174Z,2.20
2023-07-21T03:21:06.457Z,2.30
2023-07-21T03:23:33.512Z,2.50
2023-07-21T03:26:01.022Z,2.10
2023-07-21T03:28:32.363Z,2.40
2023-07-21T03:31:03.323Z,2.10
2023-07-21T03:33:36.133Z,2.70
2023-07-21T03:36:15.784Z,2.30
2023-07-21T03:38:42.458Z,2.70
2023-07-21T03:41:10.140Z,2.30
2023-07-21T03:43:40.041Z,2.20
2023-07-21T03:46:08.133Z,2.60
2023-07-21T03:48:53.415Z,2.40
2023-07-21T03:51:20.142Z,2.20
2023-07-21T03:53:47.336Z,2.80
2023-07-21T03:56:14.030Z,2.90
2023-07-21T03:58:40.586Z,2.20
2023-07-21T04:01:07.614Z,2.10
2023-07-21T04:03:34.421Z,2.20
2023-07-21T04:06:08.959Z,2.30
2023-07-21T04:08:35.878Z,3.00
2023-07-21T04:11:02.586Z,2.60
2023-07-21T04:13:29.195Z,2.70
2023-07-21T04:15:55.997Z,2.70
2023-07-21T04:18:23.925Z,2.70
2023-07-21T04:20:50.602Z,2.40
2023-07-21T04:23:19.094Z,2.70
2023-07-21T04:25:47.342Z,2.40
2023-07-21T04:28:14.838Z,2.80
2023-07-21T04:30:42.243Z,2.70
2023-07-21T04:33:10.124Z,2.80
2023-07-21T04:35:37.064Z,2.50
2023-07-21T04:38:08.125Z,2.40
2023-07-21T04:40:42.384Z,2.40
2023-07-21T04:43:09.194Z,2.80
2023-07-21T04:45:40.463Z,2.80
2023-07-21T04:48:10.866Z,2.50
2023-07-21T04:50:43.261Z,2.10
2023-07-21T04:53:11.244Z,2.40
2023-07-21T04:55:38.915Z,2.10
2023-07-21T04:58:08.800Z,2.20
2023-07-21T05:00:35.842Z,1.80
2023-07-21T05:03:02.843Z,2.10
2023-07-21T05:05:30.845Z,2.50
2023-07-21T05:08:00.659Z,2.10
2023-07-21T05:10:27.408Z,2.10
2023-07-21T05:12:55.689Z,2.20
2023-07-21T05:15:39.372Z,2.10
2023-07-21T05:18:28.768Z,2.00
2023-07-21T05:21:14.508Z,1.90
2023-07-21T05:23:45.542Z,1.80
2023-07-21T05:26:16.559Z,2.00
2023-07-21T05:28:43.336Z,1.80
2023-07-21T05:31:11.707Z,1.90
2023-07-21T05:33:52.193Z,1.70
2023-07-21T05:36:19.143Z,2.00
2023-07-21T05:38:46.168Z,1.90
2023-07-21T05:41:13.600Z,1.90
2023-07-21T05:43:40.228Z,1.80
2023-07-21T05:46:07.099Z,2.10
2023-07-21T05:48:34.951Z,1.80
2023-07-21T05:51:04.012Z,2.30
2023-07-21T05:53:30.701Z,1.90
2023-07-21T05:55:59.577Z,2.40
2023-07-21T05:58:46.025Z,2.00
2023-07-21T06:01:12.714Z,2.20
2023-07-21T06:03:39.426Z,2.50
2023-07-21T06:06:06.362Z,2.70
2023-07-21T06:08:53.068Z,2.60
2023-07-21T06:11:42.273Z,2.70
2023-07-21T06:14:22.664Z,2.60
2023-07-21T06:17:08.301Z,2.70
2023-07-21T06:19:36.120Z,2.70
2023-07-21T06:22:02.775Z,2.60
2023-07-21T06:24:30.501Z,2.70
2023-07-21T06:26:57.524Z,2.90
2023-07-21T06:29:24.293Z,2.80
2023-07-21T06:31:51.695Z,2.80
2023-07-21T06:34:24.807Z,2.90
2023-07-21T06:37:23.841Z,3.10
2023-07-21T06:40:10.009Z,3.50
2023-07-21T06:43:01.331Z,2.70
2023-07-21T06:45:40.492Z,2.60
2023-07-21T06:48:38.982Z,2.90
2023-07-21T06:51:16.447Z,2.80
2023-07-21T06:53:43.105Z,3.50
2023-07-21T06:56:12.518Z,3.50
2023-07-21T06:58:39.223Z,3.80
2023-07-21T07:01:08.096Z,3.90
2023-07-21T07:03:34.747Z,4.50
2023-07-21T07:06:01.498Z,5.30
2023-07-21T07:08:31.531Z,7.10
2023-07-21T07:10:58.578Z,8.10
2023-07-21T07:13:25.314Z,8.30
2023-07-21T07:15:53.363Z,9.20
2023-07-21T07:18:19.979Z,8.20
2023-07-21T07:20:51.108Z,8.20
2023-07-21T07:23:19.514Z,6.50
2023-07-21T07:25:51.767Z,6.90
2023-07-21T07:28:19.869Z,7.70
2023-07-21T07:30:48.220Z,5.60
2023-07-21T07:33:16.163Z,4.00
2023-07-21T07:35:49.107Z,4.00
2023-07-21T07:38:27.596Z,3.10
2023-07-21T07:40:54.529Z,3.10
2023-07-21T07:43:21.228Z,3.40
2023-07-21T07:45:48.270Z,2.70
2023-07-21T07:48:16.599Z,3.00
2023-07-21T07:50:44.761Z,2.50
2023-07-21T07:53:11.849Z,2.60
2023-07-21T07:55:42.204Z,2.60
2023-07-21T07:58:09.821Z,2.50
2023-07-21T08:00:39.454Z,2.60
2023-07-21T08:03:07.508Z,2.20
2023-07-21T08:05:38.644Z,2.10
2023-07-21T08:08:07.585Z,2.10
2023-07-21T08:10:35.301Z,1.50
2023-07-21T08:13:07.297Z,1.50
2023-07-21T08:15:34.198Z,1.60
2023-07-21T08:18:01.153Z,1.20
2023-07-21T08:20:27.896Z,1.50
2023-07-21T08:22:54.507Z,1.80
2023-07-21T08:25:21.163Z,1.30
2023-07-21T08:27:47.838Z,1.10
2023-07-21T08:30:15.913Z,1.00
2023-07-21T08:32:43.052Z,1.90
2023-07-21T08:35:10.298Z,1.00
2023-07-21T08:37:38.695Z,1.10
2023-07-21T08:40:07.246Z,1.00
2023-07-21T08:42:35.634Z,1.10
2023-07-21T08:45:07.366Z,0.90
2023-07-21T08:47:34.148Z,0.90
2023-07-21T08:50:03.717Z,0.90
2023-07-21T08:52:31.740Z,0.90
2023-07-21T08:54:58.493Z,0.90
2023-07-21T08:57:25.129Z,1.00
2023-07-21T08:59:55.511Z,1.00
2023-07-21T09:02:48.405Z,1.10
2023-07-21T09:05:18.251Z,1.10
2023-07-21T09:07:48.562Z,1.20
2023-07-21T09:10:34.216Z,1.20
2023-07-21T09:13:01.676Z,1.20
2023-07-21T09:15:28.538Z,1.10
2023-07-21T09:17:55.905Z,1.10
2023-07-21T09:20:22.571Z,1.40
2023-07-21T09:22:49.802Z,1.10
2023-07-21T09:25:23.065Z,0.70
2023-07-21T09:27:56.775Z,0.90
2023-07-21T09:30:23.926Z,1.10
2023-07-21T09:32:56.204Z,1.10
2023-07-21T09:35:22.935Z,0.80
2023-07-21T09:37:51.732Z,0.90
2023-07-21T09:40:27.584Z,0.90
2023-07-21T09:42:54.923Z,1.10
2023-07-21T09:45:22.027Z,1.10
2023-07-21T09:47:49.763Z,1.10
2023-07-21T09:50:16.400Z,1.20
2023-07-21T09:52:47.072Z,1.10
2023-07-21T09:55:17.277Z,0.90
2023-07-21T09:57:49.388Z,1.00
2023-07-21T10:00:18.834Z,1.00
2023-07-21T10:02:48.376Z,0.80
2023-07-21T10:05:15.219Z,1.10
2023-07-21T10:07:44.391Z,1.20
2023-07-21T10:10:11.940Z,1.00
2023-07-21T10:12:53.466Z,1.10
2023-07-21T10:15:31.341Z,1.80
2023-07-21T10:17:59.329Z,1.30
2023-07-21T10:20:44.045Z,1.30
2023-07-21T10:23:16.200Z,1.30
2023-07-21T10:25:51.881Z,1.60
2023-07-21T10:30:52.980Z,1.30
2023-07-21T10:33:22.946Z,1.60
2023-07-21T10:35:49.782Z,1.40
2023-07-21T10:38:16.362Z,1.20
2023-07-21T10:40:44.971Z,1.50
2023-07-21T10:43:12.654Z,1.40
2023-07-21T10:45:39.852Z,1.10
2023-07-21T10:48:13.693Z,1.40
2023-07-21T10:50:41.340Z,1.60
2023-07-21T10:53:10.125Z,1.60
2023-07-21T10:55:38.792Z,1.20
2023-07-21T10:58:06.156Z,1.40
2023-07-21T11:00:50.453Z,1.20
2023-07-21T11:03:18.468Z,1.40
2023-07-21T11:05:45.771Z,1.20
2023-07-21T11:08:24.777Z,1.30
2023-07-21T11:10:51.457Z,1.20
2023-07-21T11:13:18.834Z,1.20
2023-07-21T11:15:55.531Z,1.20
2023-07-21T11:18:23.222Z,1.40
2023-07-21T11:20:54.177Z,1.00
2023-07-21T11:23:25.498Z,1.40
2023-07-21T11:26:10.487Z,1.20
2023-07-21T11:28:42.431Z,1.20
2023-07-21T11:31:16.284Z,1.00
2023-07-21T11:33:43.717Z,1.20
2023-07-21T11:36:15.530Z,1.30
2023-07-21T11:38:55.827Z,1.10
2023-07-21T11:41:40.627Z,1.00
2023-07-21T11:44:13.467Z,1.40
2023-07-21T11:46:40.605Z,0.90
2023-07-21T11:49:11.453Z,1.90
2023-07-21T11:51:45.840Z,1.10
2023-07-21T11:54:23.431Z,1.10
2023-07-21T11:56:52.430Z,0.90
2023-07-21T11:59:20.529Z,0.80
2023-07-21T12:01:47.778Z,1.20
2023-07-21T12:04:15.115Z,1.20
2023-07-21T12:06:41.792Z,1.00
2023-07-21T12:09:08.468Z,1.10
2023-07-21T12:11:35.086Z,1.10
2023-07-21T12:14:02.651Z,1.10
2023-07-21T12:16:32.704Z,1.10
2023-07-21T12:18:59.439Z,1.30
2023-07-21T12:21:26.378Z,1.30
2023-07-21T12:23:53.354Z,1.60
2023-07-21T12:26:20.173Z,1.30
2023-07-21T12:28:48.809Z,1.20
2023-07-21T12:31:16.307Z,1.10
2023-07-21T12:33:45.070Z,1.10
2023-07-21T12:36:14.977Z,1.00
2023-07-21T12:38:42.568Z,1.90
2023-07-21T12:41:09.619Z,2.10
2023-07-21T12:43:37.486Z,1.50
2023-07-21T12:46:04.891Z,1.80
2023-07-21T12:48:32.041Z,1.80
2023-07-21T12:50:58.850Z,1.60
2023-07-21T12:53:25.906Z,1.60
2023-07-21T12:55:52.831Z,1.90
2023-07-21T12:58:20.359Z,1.60
2023-07-21T13:00:47.087Z,1.60
2023-07-21T13:03:14.368Z,1.70
2023-07-21T13:05:54.514Z,1.70
2023-07-21T13:08:22.809Z,1.40
2023-07-21T13:10:49.541Z,1.50
2023-07-21T13:13:16.380Z,1.80
2023-07-21T13:15:43.824Z,1.60
2023-07-21T13:18:10.656Z,1.30
2023-07-21T13:20:39.932Z,1.60
2023-07-21T13:23:15.222Z,1.20
2023-07-21T13:25:47.458Z,1.30
2023-07-21T13:28:14.176Z,1.60
2023-07-21T13:30:40.820Z,2.00
2023-07-21T13:33:07.446Z,1.60
2023-07-21T13:35:36.065Z,1.70
2023-07-21T13:38:02.715Z,1.90
2023-07-21T13:40:29.288Z,2.60
2023-07-21T13:42:55.941Z,1.90
2023-07-21T13:45:22.536Z,1.60
2023-07-21T13:47:49.443Z,1.90
2023-07-21T13:50:16.221Z,2.50
2023-07-21T13:52:42.868Z,2.50
2023-07-21T13:55:09.613Z,2.20
2023-07-21T13:57:36.471Z,2.10
2023-07-21T14:00:06.309Z,1.80
2023-07-21T14:05:05.987Z,2.30
2023-07-21T14:07:32.618Z,2.20
2023-07-21T14:09:59.269Z,2.10
2023-07-21T14:12:25.852Z,1.90
2023-07-21T14:14:52.561Z,2.10
2023-07-21T14:17:19.218Z,2.10
2023-07-21T14:19:46.267Z,2.00
2023-07-21T14:22:13.124Z,2.10
2023-07-21T14:24:39.774Z,2.00
2023-07-21T14:27:06.627Z,2.20
2023-07-21T14:29:34.525Z,1.70
2023-07-21T14:32:01.285Z,2.20
2023-07-21T14:34:27.898Z,1.80
2023-07-21T14:36:54.494Z,2.10
2023-07-21T14:39:21.542Z,1.90
2023-07-21T14:41:48.180Z,1.80
2023-07-21T14:44:15.697Z,1.40
2023-07-21T14:46:42.625Z,1.60
2023-07-21T14:49:09.361Z,1.70
2023-07-21T14:51:37.882Z,1.80
2023-07-21T14:54:06.358Z,2.30
2023-07-21T14:56:33.190Z,1.50
2023-07-21T14:59:00.950Z,1.90
2023-07-21T15:01:27.988Z,1.80
2023-07-21T15:03:54.848Z,1.80
2023-07-21T15:06:21.707Z,1.40
2023-07-21T15:08:48.507Z,1.50
2023-07-21T15:11:18.108Z,1.80
2023-07-21T15:13:45.784Z,1.70
2023-07-21T15:16:12.364Z,1.70
2023-07-21T15:18:39.103Z,1.90
2023-07-21T15:21:05.726Z,1.50
2023-07-21T15:23:32.545Z,2.10
2023-07-21T15:25:59.110Z,1.50
2023-07-21T15:30:19.605Z,1.70
2023-07-21T15:32:46.932Z,1.50
2023-07-21T15:35:13.620Z,1.80
2023-07-21T15:37:40.763Z,2.00
2023-07-21T15:40:12.533Z,1.80
2023-07-21T15:42:42.909Z,2.00
2023-07-21T15:45:11.857Z,2.20
2023-07-21T15:47:38.728Z,1.40
2023-07-21T15:50:11.162Z,2.10
2023-07-21T15:52:41.301Z,2.20
2023-07-21T15:55:11.362Z,2.20
2023-07-21T15:57:39.218Z,2.20
2023-07-21T16:00:14.009Z,2.10
2023-07-21T16:02:41.488Z,2.10
2023-07-21T16:05:08.934Z,2.30
2023-07-21T16:07:35.594Z,2.10
2023-07-21T16:10:04.753Z,2.00
2023-07-21T16:12:32.047Z,2.20
2023-07-21T16:14:59.076Z,2.10
2023-07-21T16:17:26.042Z,2.50
2023-07-21T16:19:52.924Z,2.20
2023-07-21T16:22:19.781Z,2.00
2023-07-21T16:24:46.489Z,2.40
2023-07-21T16:27:13.332Z,2.00
2023-07-21T16:29:40.214Z,2.60
2023-07-21T16:32:07.279Z,2.00
2023-07-21T16:34:35.411Z,2.80
2023-07-21T16:37:02.506Z,2.30
2023-07-21T16:39:29.889Z,2.20
2023-07-21T16:41:56.668Z,2.20
2023-07-21T16:44:24.282Z,2.20
2023-07-21T16:46:51.177Z,2.30
2023-07-21T16:49:18.666Z,2.60
2023-07-21T16:51:45.380Z,2.10
2023-07-21T16:54:12.319Z,2.00
2023-07-21T16:56:38.882Z,2.00
2023-07-21T16:59:05.467Z,1.90
2023-07-21T17:01:32.254Z,2.20
2023-07-21T17:03:59.004Z,2.50
2023-07-21T17:06:25.756Z,2.30
2023-07-21T17:08:52.424Z,2.40
2023-07-21T17:11:19.158Z,2.40
2023-07-21T17:13:45.879Z,2.00
2023-07-21T17:16:12.613Z,2.30
2023-07-21T17:18:39.252Z,2.30
2023-07-21T17:21:05.902Z,2.20
2023-07-21T17:23:32.652Z,2.40
2023-07-21T17:26:04.267Z,2.70
2023-07-21T17:28:32.158Z,2.40
2023-07-21T17:31:03.172Z,2.90
2023-07-21T17:33:30.262Z,2.30
2023-07-21T17:35:57.125Z,2.70
2023-07-21T17:38:25.850Z,2.60
2023-07-21T17:40:59.763Z,3.10
2023-07-21T17:43:27.584Z,2.80
2023-07-21T17:45:55.549Z,2.60
2023-07-21T17:48:25.718Z,2.90
2023-07-21T17:50:54.332Z,2.70
2023-07-21T17:53:22.405Z,2.70
2023-07-21T17:55:49.143Z,2.50
2023-07-21T17:58:17.255Z,2.70
2023-07-21T18:00:44.949Z,3.00
2023-07-21T18:03:13.032Z,2.40
2023-07-21T18:05:40.226Z,2.60
2023-07-21T18:08:07.745Z,2.50
2023-07-21T18:10:35.036Z,3.20
2023-07-21T18:13:02.476Z,3.90
2023-07-21T18:15:37.246Z,2.20
2023-07-21T18:18:04.097Z,2.70
2023-07-21T18:20:34.322Z,3.10
2023-07-21T18:23:02.717Z,2.70
2023-07-21T18:25:29.367Z,2.70
2023-07-21T18:27:56.085Z,2.60
2023-07-21T18:30:23.045Z,2.50
2023-07-21T18:32:50.894Z,2.70
2023-07-21T18:35:20.021Z,3.00
2023-07-21T18:37:48.149Z,2.50
2023-07-21T18:40:16.105Z,2.50
2023-07-21T18:42:49.277Z,2.50
2023-07-21T18:45:19.865Z,2.40
2023-07-21T18:47:47.527Z,2.70
2023-07-21T18:50:14.753Z,2.30
2023-07-21T18:52:41.389Z,2.60
2023-07-21T18:55:09.252Z,2.30
2023-07-21T18:57:35.862Z,2.30
2023-07-21T19:00:05.112Z,2.70
2023-07-21T19:02:31.737Z,2.60
2023-07-21T19:04:58.495Z,2.70
2023-07-21T19:07:25.102Z,2.90
2023-07-21T19:09:53.430Z,4.20
2023-07-21T19:12:22.400Z,3.60
2023-07-21T19:14:49.284Z,3.30
2023-07-21T19:17:16.094Z,3.80
2023-07-21T19:19:44.989Z,3.40
2023-07-21T19:22:12.238Z,3.30
2023-07-21T19:24:38.997Z,3.20
2023-07-21T19:27:06.137Z,3.20
2023-07-21T19:29:32.868Z,3.10
2023-07-21T19:31:59.631Z,2.80
2023-07-21T19:34:29.533Z,3.30
2023-07-21T19:36:56.878Z,2.60
2023-07-21T19:39:23.542Z,2.90
2023-07-21T19:41:50.191Z,2.50
2023-07-21T19:44:17.017Z,2.50
2023-07-21T19:46:44.175Z,2.40
2023-07-21T19:49:12.559Z,2.10
2023-07-21T19:51:39.206Z,2.70
2023-07-21T19:54:06.827Z,2.40
2023-07-21T19:56:34.612Z,2.30
2023-07-21T19:59:03.404Z,2.20
2023-07-21T20:01:30.734Z,2.00
2023-07-21T20:03:57.541Z,2.80
2023-07-21T20:06:24.733Z,2.50
2023-07-21T20:08:51.362Z,2.70
2023-07-21T20:11:18.070Z,2.70
2023-07-21T20:13:44.658Z,2.70
2023-07-21T20:16:11.433Z,2.50
2023-07-21T20:18:38.069Z,2.60
2023-07-21T20:21:06.155Z,2.60
2023-07-21T20:23:34.614Z,2.90
2023-07-21T20:26:03.409Z,2.70
2023-07-21T20:28:30.698Z,2.80
2023-07-21T20:30:57.451Z,2.60
2023-07-21T20:33:24.645Z,3.20
2023-07-21T20:35:52.965Z,2.90
2023-07-21T20:38:19.549Z,3.30
2023-07-21T20:40:46.426Z,2.60
2023-07-21T20:43:13.165Z,2.90
2023-07-21T20:45:41.187Z,3.10
2023-07-21T20:48:08.976Z,2.70
2023-07-21T20:50:35.883Z,3.10
2023-07-21T20:53:02.773Z,3.10
2023-07-21T20:55:29.425Z,2.80
2023-07-21T20:57:56.118Z,2.60
2023-07-21T21:00:23.959Z,3.00
2023-07-21T21:02:53.830Z,3.20
2023-07-21T21:05:20.614Z,3.40
2023-07-21T21:07:47.634Z,3.50
2023-07-21T21:10:15.100Z,3.20
2023-07-21T21:12:42.020Z,3.20
2023-07-21T21:15:09.089Z,2.70
2023-07-21T21:17:35.790Z,3.60
2023-07-21T21:20:02.616Z,3.70
2023-07-21T21:22:29.401Z,3.40
2023-07-21T21:24:56.073Z,3.00
2023-07-21T21:27:22.827Z,3.30
2023-07-21T21:29:49.974Z,4.40
2023-07-21T21:32:16.639Z,3.90
2023-07-21T21:34:43.744Z,4.00
2023-07-21T21:37:10.345Z,4.30
2023-07-21T21:39:37.007Z,3.40
2023-07-21T21:42:04.068Z,3.50
2023-07-21T21:44:31.746Z,3.80
2023-07-21T21:46:58.520Z,3.90
2023-07-21T21:49:25.464Z,4.00
2023-07-21T21:51:52.147Z,3.90
2023-07-21T21:54:18.768Z,3.90
2023-07-21T21:56:45.437Z,4.20
2023-07-21T21:59:13.416Z,4.30
2023-07-21T22:01:40.076Z,4.00
2023-07-21T22:04:06.848Z,4.60
2023-07-21T22:06:33.619Z,4.60
2023-07-21T22:09:00.872Z,4.40
2023-07-21T22:11:28.114Z,4.60
2023-07-21T22:13:55.353Z,4.30
2023-07-21T22:16:23.293Z,4.00
2023-07-21T22:18:50.144Z,3.70
2023-07-21T22:21:16.749Z,3.60
2023-07-21T22:23:43.944Z,3.40
2023-07-21T22:26:10.548Z,3.80
2023-07-21T22:28:37.323Z,3.80
2023-07-21T22:31:14.988Z,3.90
2023-07-21T22:33:42.438Z,4.60
2023-07-21T22:36:10.553Z,5.00
2023-07-21T22:38:37.998Z,4.20
2023-07-21T22:41:05.719Z,4.30
2023-07-21T22:43:33.543Z,4.10
2023-07-21T22:46:00.290Z,4.10
2023-07-21T22:48:30.290Z,4.40
2023-07-21T22:50:56.968Z,4.50
2023-07-21T22:53:23.652Z,4.70
2023-07-21T22:55:52.541Z,5.00
2023-07-21T22:58:20.257Z,4.80
2023-07-21T23:00:47.034Z,4.80
2023-07-21T23:03:16.663Z,6.00
2023-07-21T23:05:44.597Z,5.80
2023-07-21T23:08:11.367Z,6.30
2023-07-21T23:10:38.211Z,5.50
2023-07-21T23:13:05.623Z,5.20
2023-07-21T23:15:32.811Z,5.00
2023-07-21T23:17:59.717Z,4.90
2023-07-21T23:20:26.521Z,4.60
2023-07-21T23:22:53.124Z,4.60
2023-07-21T23:25:19.723Z,4.80
2023-07-21T23:27:46.307Z,3.70
2023-07-21T23:30:16.722Z,3.70
2023-07-21T23:32:44.138Z,3.50
2023-07-21T23:35:13.242Z,3.50
2023-07-21T23:37:39.846Z,3.40
2023-07-21T23:40:10.502Z,3.10
2023-07-21T23:42:45.140Z,3.10
2023-07-21T23:45:13.383Z,2.60
2023-07-21T23:47:40.974Z,2.90
2023-07-21T23:50:09.055Z,2.60
2023-07-21T23:52:37.190Z,2.50
2023-07-21T23:55:04.280Z,2.30
2023-07-21T23:57:32.413Z,2.80
2023-07-21T23:59:59.145Z,2.80
